createdAt,value
2022-12-11T00:01:18.344Z,36.53
2022-12-11T00:03:45.684Z,30.83
2022-12-11T00:06:15.773Z,33.25
2022-12-11T00:08:43.544Z,34.58
2022-12-11T00:11:12.672Z,33.50
2022-12-11T00:13:40.013Z,29.48
2022-12-11T00:16:07.626Z,34.40
2022-12-11T00:18:34.968Z,28.55
2022-12-11T00:21:02.645Z,27.83
2022-12-11T00:23:31.309Z,28.23
2022-12-11T00:25:58.612Z,26.58
2022-12-11T00:28:25.939Z,28.10
2022-12-11T00:30:53.257Z,28.70
2022-12-11T00:33:20.574Z,25.75
2022-12-11T00:35:47.992Z,27.20
2022-12-11T00:38:16.179Z,25.08
2022-12-11T00:40:45.029Z,27.20
2022-12-11T00:43:12.892Z,25.50
2022-12-11T00:45:41.538Z,28.20
2022-12-11T00:48:09.037Z,25.33
2022-12-11T00:50:36.643Z,28.17
2022-12-11T00:53:05.176Z,27.92
2022-12-11T00:55:33.084Z,24.60
2022-12-11T00:58:01.733Z,26.13
2022-12-11T01:00:29.012Z,26.60
2022-12-11T01:02:56.293Z,28.10
2022-12-11T01:05:23.581Z,27.27
2022-12-11T01:07:50.971Z,28.40
2022-12-11T01:10:27.150Z,28.73
2022-12-11T01:12:55.037Z,27.23
2022-12-11T01:15:24.664Z,27.63
2022-12-11T01:17:52.207Z,26.75
2022-12-11T01:20:19.997Z,28.73
2022-12-11T01:22:47.298Z,29.23
2022-12-11T01:25:14.630Z,30.15
2022-12-11T01:27:41.920Z,28.88
2022-12-11T01:30:09.754Z,31.65
2022-12-11T01:32:38.363Z,33.42
2022-12-11T01:35:06.165Z,25.67
2022-12-11T01:37:33.497Z,25.27
2022-12-11T01:40:01.002Z,26.38
2022-12-11T01:42:29.378Z,27.45
2022-12-11T01:45:27.458Z,25.42
2022-12-11T01:47:57.548Z,26.77
2022-12-11T01:50:25.414Z,26.33
2022-12-11T01:52:53.188Z,23.77
2022-12-11T01:55:21.340Z,24.20
2022-12-11T01:57:49.924Z,24.60
2022-12-11T02:00:17.438Z,25.23
2022-12-11T02:02:44.876Z,24.95
2022-12-11T02:05:13.780Z,22.30
2022-12-11T02:07:43.547Z,23.42
2022-12-11T02:10:12.013Z,23.77
2022-12-11T02:12:41.463Z,25.02
2022-12-11T02:15:13.413Z,24.48
2022-12-11T02:17:42.794Z,24.70
2022-12-11T02:20:13.900Z,25.27
2022-12-11T02:22:59.888Z,25.20
2022-12-11T02:25:30.796Z,24.85
2022-12-11T02:28:07.881Z,25.90
2022-12-11T02:30:37.734Z,24.67
2022-12-11T02:33:05.325Z,24.63
2022-12-11T02:35:34.271Z,26.48
2022-12-11T02:38:03.820Z,22.35
2022-12-11T02:40:33.403Z,25.63
2022-12-11T02:43:02.217Z,23.48
2022-12-11T02:45:31.840Z,23.52
2022-12-11T02:47:59.906Z,23.23
2022-12-11T02:50:27.910Z,25.48
2022-12-11T02:52:56.243Z,22.10
2022-12-11T02:55:24.313Z,23.38
2022-12-11T02:57:53.667Z,22.08
2022-12-11T03:00:21.674Z,23.25
2022-12-11T03:02:50.398Z,21.77
2022-12-11T03:05:17.782Z,23.20
2022-12-11T03:07:45.369Z,21.75
2022-12-11T03:10:15.467Z,19.98
2022-12-11T03:12:43.783Z,19.00
2022-12-11T03:15:14.462Z,17.08
2022-12-11T03:17:46.182Z,18.13
2022-12-11T03:20:21.297Z,19.10
2022-12-11T03:22:51.103Z,17.73
2022-12-11T03:25:20.043Z,17.55
2022-12-11T03:27:49.941Z,18.95
2022-12-11T03:30:18.572Z,17.60
2022-12-11T03:32:50.112Z,17.92
2022-12-11T03:35:21.823Z,19.17
2022-12-11T03:37:50.600Z,18.48
2022-12-11T03:40:20.415Z,16.90
2022-12-11T03:42:49.910Z,18.65
2022-12-11T03:45:18.326Z,19.42
2022-12-11T03:47:46.452Z,18.05
2022-12-11T03:50:15.241Z,19.05
2022-12-11T03:52:46.217Z,16.95
2022-12-11T03:55:14.827Z,17.50
2022-12-11T03:57:42.286Z,18.50
2022-12-11T04:00:11.329Z,19.13
2022-12-11T04:02:38.671Z,18.50
2022-12-11T04:05:06.425Z,18.27
2022-12-11T04:07:33.829Z,17.88
2022-12-11T04:10:02.707Z,18.48
2022-12-11T04:12:30.026Z,18.30
2022-12-11T04:15:02.008Z,17.65
2022-12-11T04:17:47.177Z,19.17
2022-12-11T04:20:31.845Z,17.98
2022-12-11T04:23:16.958Z,18.90
2022-12-11T04:25:45.602Z,18.95
2022-12-11T04:28:12.922Z,19.48
2022-12-11T04:30:40.204Z,17.88
2022-12-11T04:33:07.602Z,17.58
2022-12-11T04:35:34.932Z,18.75
2022-12-11T04:38:02.230Z,18.58
2022-12-11T04:40:29.607Z,18.17
2022-12-11T04:42:58.287Z,17.70
2022-12-11T04:45:25.604Z,18.63
2022-12-11T04:47:53.020Z,17.20
2022-12-11T04:50:20.349Z,17.17
2022-12-11T04:52:47.707Z,17.05
2022-12-11T04:55:15.020Z,17.17
2022-12-11T04:57:42.386Z,16.10
2022-12-11T05:00:12.400Z,18.30
2022-12-11T05:02:40.874Z,16.65
2022-12-11T05:05:10.672Z,17.92
2022-12-11T05:07:38.724Z,16.73
2022-12-11T05:10:06.475Z,16.00
2022-12-11T05:12:34.065Z,16.50
2022-12-11T05:15:01.382Z,17.48
2022-12-11T05:17:30.044Z,16.83
2022-12-11T05:19:57.309Z,16.33
2022-12-11T05:22:24.636Z,16.45
2022-12-11T05:24:51.989Z,15.88
2022-12-11T05:27:19.270Z,17.85
2022-12-11T05:29:46.560Z,17.45
2022-12-11T05:32:13.978Z,17.58
2022-12-11T05:34:42.775Z,16.35
2022-12-11T05:37:10.263Z,17.75
2022-12-11T05:39:38.348Z,16.75
2022-12-11T05:42:05.767Z,16.40
2022-12-11T05:44:33.774Z,18.33
2022-12-11T05:47:01.113Z,18.65
2022-12-11T05:49:30.988Z,17.23
2022-12-11T05:51:59.990Z,19.17
2022-12-11T05:54:27.270Z,18.60
2022-12-11T05:56:54.597Z,18.10
2022-12-11T05:59:21.994Z,18.85
2022-12-11T06:01:49.447Z,16.25
2022-12-11T06:04:16.935Z,18.95
2022-12-11T06:06:44.629Z,18.90
2022-12-11T06:09:14.634Z,17.85
2022-12-11T06:11:42.514Z,17.77
2022-12-11T06:14:11.166Z,18.40
2022-12-11T06:16:38.610Z,19.17
2022-12-11T06:19:06.111Z,17.90
2022-12-11T06:21:33.995Z,19.00
2022-12-11T06:24:02.245Z,18.33
2022-12-11T06:26:31.856Z,18.55
2022-12-11T06:28:59.155Z,18.30
2022-12-11T06:31:26.543Z,17.73
2022-12-11T06:33:54.163Z,17.15
2022-12-11T06:36:22.232Z,18.13
2022-12-11T06:38:49.652Z,17.98
2022-12-11T06:41:17.533Z,18.45
2022-12-11T06:43:46.282Z,17.52
2022-12-11T06:46:15.076Z,18.48
2022-12-11T06:48:43.075Z,17.10
2022-12-11T06:51:11.498Z,17.30
2022-12-11T06:53:39.144Z,17.50
2022-12-11T06:56:07.361Z,18.70
2022-12-11T06:58:35.416Z,17.27
2022-12-11T07:01:04.607Z,17.67
2022-12-11T07:03:31.995Z,17.92
2022-12-11T07:06:01.333Z,17.35
2022-12-11T07:08:29.151Z,17.50
2022-12-11T07:10:56.529Z,17.98
2022-12-11T07:13:23.846Z,19.58
2022-12-11T07:15:51.222Z,17.88
2022-12-11T07:18:19.936Z,18.02
2022-12-11T07:20:47.251Z,18.15
2022-12-11T07:23:14.548Z,17.13
2022-12-11T07:25:42.008Z,17.45
2022-12-11T07:28:13.657Z,18.90
2022-12-11T07:30:44.098Z,16.80
2022-12-11T07:33:11.455Z,18.77
2022-12-11T07:35:40.199Z,19.98
2022-12-11T07:38:07.540Z,19.40
2022-12-11T07:40:35.076Z,20.92
2022-12-11T07:43:02.419Z,19.23
2022-12-11T07:45:29.799Z,19.20
2022-12-11T07:47:57.120Z,21.02
2022-12-11T07:50:24.434Z,22.58
2022-12-11T07:52:53.284Z,24.27
2022-12-11T07:55:20.603Z,20.05
2022-12-11T07:57:47.916Z,21.63
2022-12-11T08:00:15.639Z,22.75
2022-12-11T08:02:43.158Z,20.05
2022-12-11T08:05:11.131Z,21.80
2022-12-11T08:07:38.856Z,21.30
2022-12-11T08:10:07.878Z,21.70
2022-12-11T08:12:35.200Z,22.30
2022-12-11T08:15:02.580Z,20.95
2022-12-11T08:17:32.887Z,20.23
2022-12-11T08:20:04.335Z,20.65
2022-12-11T08:22:31.628Z,21.75
2022-12-11T08:24:58.918Z,22.20
2022-12-11T08:27:27.587Z,21.60
2022-12-11T08:29:57.514Z,34.97
2022-12-11T08:32:24.844Z,24.20
2022-12-11T08:34:52.521Z,42.00
2022-12-11T08:37:19.884Z,21.83
2022-12-11T08:39:47.847Z,25.80
2022-12-11T08:42:15.226Z,25.88
2022-12-11T08:44:43.932Z,22.58
2022-12-11T08:47:11.299Z,22.70
2022-12-11T08:49:38.814Z,21.55
2022-12-11T08:52:06.372Z,23.10
2022-12-11T08:54:33.724Z,23.05
2022-12-11T08:57:01.060Z,21.38
2022-12-11T08:59:28.390Z,21.38
2022-12-11T09:01:57.082Z,20.63
2022-12-11T09:04:24.419Z,23.05
2022-12-11T09:06:51.766Z,22.65
2022-12-11T09:09:19.627Z,24.67
2022-12-11T09:11:46.941Z,24.17
2022-12-11T09:14:15.932Z,20.35
2022-12-11T09:16:43.327Z,20.98
2022-12-11T09:19:13.934Z,21.05
2022-12-11T09:21:41.648Z,23.27
2022-12-11T09:24:10.449Z,24.88
2022-12-11T09:26:37.860Z,23.88
2022-12-11T09:29:05.734Z,22.08
2022-12-11T09:31:33.576Z,24.02
2022-12-11T09:34:02.120Z,23.63
2022-12-11T09:36:30.789Z,24.95
2022-12-11T09:39:00.871Z,22.50
2022-12-11T09:41:33.448Z,24.55
2022-12-11T09:44:03.227Z,22.80
2022-12-11T09:46:34.140Z,25.67
2022-12-11T09:49:02.851Z,24.55
2022-12-11T09:51:36.052Z,26.05
2022-12-11T09:54:04.376Z,25.45
2022-12-11T09:56:33.971Z,24.70
2022-12-11T09:59:04.829Z,22.98
2022-12-11T10:01:36.883Z,23.02
2022-12-11T10:04:11.391Z,22.98
2022-12-11T10:06:42.924Z,22.70
2022-12-11T10:09:15.339Z,23.70
2022-12-11T10:11:56.881Z,23.52
2022-12-11T10:14:33.492Z,24.08
2022-12-11T10:17:03.197Z,24.98
2022-12-11T10:19:30.883Z,22.40
2022-12-11T10:22:00.592Z,22.15
2022-12-11T10:25:07.774Z,22.05
2022-12-11T10:27:21.078Z,23.02
2022-12-11T10:29:48.728Z,22.63
2022-12-11T10:32:21.612Z,22.98
2022-12-11T10:34:51.144Z,24.75
2022-12-11T10:37:19.773Z,25.10
2022-12-11T10:39:47.132Z,24.88
2022-12-11T10:42:17.364Z,24.77
2022-12-11T10:44:55.880Z,24.95
2022-12-11T10:47:23.144Z,24.48
2022-12-11T10:49:53.251Z,23.48
2022-12-11T10:52:23.756Z,25.38
2022-12-11T10:54:55.966Z,26.83
2022-12-11T10:57:28.527Z,24.48
2022-12-11T10:59:56.274Z,24.35
2022-12-11T11:02:25.219Z,26.95
2022-12-11T11:04:53.165Z,26.00
2022-12-11T11:07:23.568Z,27.42
2022-12-11T11:09:51.684Z,26.02
2022-12-11T11:12:23.397Z,28.85
2022-12-11T11:14:59.944Z,29.42
2022-12-11T11:17:30.758Z,28.98
2022-12-11T11:22:32.089Z,30.40
2022-12-11T11:24:59.683Z,27.70
2022-12-11T11:27:29.831Z,29.23
2022-12-11T11:29:58.352Z,28.95
2022-12-11T11:32:28.313Z,29.90
2022-12-11T11:35:06.045Z,29.58
2022-12-11T11:37:35.131Z,29.75
2022-12-11T11:40:04.882Z,29.95
2022-12-11T11:42:38.441Z,29.58
2022-12-11T11:45:07.887Z,29.08
2022-12-11T11:47:37.296Z,30.02
2022-12-11T11:50:07.189Z,30.98
2022-12-11T11:52:38.678Z,28.88
2022-12-11T11:55:10.107Z,27.27
2022-12-11T11:57:42.231Z,29.40
2022-12-11T12:00:16.669Z,30.23
2022-12-11T12:02:46.915Z,28.85
2022-12-11T12:05:14.579Z,27.52
2022-12-11T12:07:46.753Z,30.17
2022-12-11T12:10:17.594Z,27.70
2022-12-11T12:12:50.508Z,30.38
2022-12-11T12:15:39.096Z,29.95
2022-12-11T12:18:12.896Z,30.63
2022-12-11T12:20:44.934Z,31.93
2022-12-11T12:23:36.481Z,31.85
2022-12-11T12:26:09.382Z,30.88
2022-12-11T12:28:40.142Z,30.80
2022-12-11T12:31:17.159Z,29.73
2022-12-11T12:33:52.203Z,31.52
2022-12-11T12:36:24.221Z,32.90
2022-12-11T12:38:54.880Z,34.10
2022-12-11T12:41:26.371Z,36.20
2022-12-11T12:44:01.310Z,37.38
2022-12-11T12:46:34.132Z,33.90
2022-12-11T12:49:02.456Z,34.38
2022-12-11T12:51:30.294Z,33.50
2022-12-11T12:53:59.288Z,33.90
2022-12-11T12:56:28.874Z,34.25
2022-12-11T12:58:56.264Z,31.88
2022-12-11T13:01:25.442Z,26.48
2022-12-11T13:03:56.492Z,25.35
2022-12-11T13:06:35.472Z,28.10
2022-12-11T13:09:15.158Z,25.55
2022-12-11T13:11:44.287Z,26.10
2022-12-11T13:14:27.056Z,24.73
2022-12-11T13:17:05.236Z,24.98
2022-12-11T13:19:37.636Z,22.92
2022-12-11T13:22:21.227Z,22.42
2022-12-11T13:24:51.730Z,24.33
2022-12-11T13:27:25.740Z,22.55
2022-12-11T13:29:53.496Z,23.58
2022-12-11T13:32:22.995Z,23.45
2022-12-11T13:34:52.786Z,22.13
2022-12-11T13:37:25.011Z,23.90
2022-12-11T13:39:52.748Z,24.48
2022-12-11T13:42:23.200Z,23.35
2022-12-11T13:44:52.180Z,23.40
2022-12-11T13:47:21.210Z,24.23
2022-12-11T13:49:49.998Z,24.08
2022-12-11T13:52:18.413Z,25.77
2022-12-11T13:54:49.012Z,25.17
2022-12-11T13:57:17.845Z,25.83
2022-12-11T13:59:48.541Z,25.92
2022-12-11T14:02:20.166Z,24.75
2022-12-11T14:04:48.997Z,25.10
2022-12-11T14:07:19.304Z,27.35
2022-12-11T14:09:46.932Z,26.13
2022-12-11T14:12:17.312Z,24.75
2022-12-11T14:14:46.510Z,27.35
2022-12-11T14:17:15.108Z,25.25
2022-12-11T14:19:46.345Z,28.13
2022-12-11T14:22:18.762Z,26.67
2022-12-11T14:24:49.737Z,26.75
2022-12-11T14:27:18.512Z,23.67
2022-12-11T14:29:46.712Z,25.75
2022-12-11T14:32:18.607Z,26.33
2022-12-11T14:34:48.598Z,25.60
2022-12-11T14:37:16.913Z,24.02
2022-12-11T14:39:46.184Z,28.70
2022-12-11T14:42:15.754Z,23.98
2022-12-11T14:44:46.800Z,24.30
2022-12-11T14:47:16.359Z,24.63
2022-12-11T14:49:46.512Z,22.42
2022-12-11T14:52:17.699Z,24.25
2022-12-11T14:54:46.459Z,24.80
2022-12-11T14:57:19.287Z,24.38
2022-12-11T14:59:47.708Z,23.63
2022-12-11T15:02:23.484Z,24.25
2022-12-11T15:04:59.516Z,22.13
2022-12-11T15:07:28.253Z,23.23
2022-12-11T15:09:55.578Z,22.30
2022-12-11T15:12:22.921Z,22.95
2022-12-11T15:14:52.225Z,22.23
2022-12-11T15:17:20.108Z,23.25
2022-12-11T15:19:49.356Z,22.92
2022-12-11T15:22:16.963Z,23.33
2022-12-11T15:24:47.067Z,22.30
2022-12-11T15:27:23.891Z,24.67
2022-12-11T15:29:51.475Z,22.58
2022-12-11T15:32:21.626Z,21.38
2022-12-11T15:34:49.931Z,21.45
2022-12-11T15:37:23.982Z,24.27
2022-12-11T15:39:53.484Z,22.00
2022-12-11T15:42:24.148Z,23.48
2022-12-11T15:44:51.424Z,22.33
2022-12-11T15:47:21.426Z,24.33
2022-12-11T15:49:48.730Z,24.92
2022-12-11T15:52:16.039Z,23.83
2022-12-11T15:54:43.440Z,24.05
2022-12-11T15:57:15.096Z,24.52
2022-12-11T15:59:42.391Z,23.73
2022-12-11T16:02:11.992Z,22.27
2022-12-11T16:04:39.353Z,25.42
2022-12-11T16:07:06.773Z,23.17
2022-12-11T16:09:34.519Z,23.08
2022-12-11T16:12:02.336Z,25.10
2022-12-11T16:14:31.004Z,24.23
2022-12-11T16:16:58.332Z,26.25
2022-12-11T16:19:25.630Z,23.30
2022-12-11T16:21:53.070Z,24.73
2022-12-11T16:24:20.420Z,24.30
2022-12-11T16:26:48.202Z,23.95
2022-12-11T16:29:15.499Z,36.47
2022-12-11T16:31:44.283Z,29.23
2022-12-11T16:34:11.686Z,30.00
2022-12-11T16:36:39.018Z,26.25
2022-12-11T16:39:06.316Z,22.67
2022-12-11T16:41:34.185Z,24.45
2022-12-11T16:44:02.990Z,22.83
2022-12-11T16:46:30.417Z,23.67
2022-12-11T16:48:59.172Z,22.98
2022-12-11T16:51:26.611Z,22.85
2022-12-11T16:53:53.961Z,21.67
2022-12-11T16:56:21.218Z,20.65
2022-12-11T16:58:49.309Z,22.10
2022-12-11T17:01:17.091Z,22.45
2022-12-11T17:03:44.534Z,22.00
2022-12-11T17:06:13.937Z,22.50
2022-12-11T17:08:42.607Z,24.00
2022-12-11T17:11:10.855Z,21.42
2022-12-11T17:13:38.568Z,22.25
2022-12-11T17:16:06.333Z,22.52
2022-12-11T17:18:33.716Z,22.08
2022-12-11T17:21:01.047Z,23.58
2022-12-11T17:23:29.726Z,20.77
2022-12-11T17:25:57.045Z,21.90
2022-12-11T17:28:24.448Z,22.67
2022-12-11T17:30:52.879Z,21.77
2022-12-11T17:33:20.218Z,22.10
2022-12-11T17:35:47.570Z,22.45
2022-12-11T17:38:14.846Z,26.23
2022-12-11T17:40:43.884Z,25.08
2022-12-11T17:43:11.684Z,23.10
2022-12-11T17:45:41.718Z,24.23
2022-12-11T17:48:09.085Z,23.90
2022-12-11T17:50:36.447Z,21.42
2022-12-11T17:53:03.784Z,29.27
2022-12-11T17:55:31.249Z,26.77
2022-12-11T17:58:00.386Z,26.60
2022-12-11T18:00:33.093Z,26.70
2022-12-11T18:03:00.837Z,27.45
2022-12-11T18:05:28.188Z,22.77
2022-12-11T18:07:57.925Z,22.70
2022-12-11T18:10:25.944Z,24.33
2022-12-11T18:12:53.377Z,21.90
2022-12-11T18:15:22.121Z,23.08
2022-12-11T18:17:49.487Z,24.05
2022-12-11T18:20:16.836Z,24.08
2022-12-11T18:22:44.389Z,23.27
2022-12-11T18:25:12.201Z,23.65
2022-12-11T18:27:40.034Z,34.40
2022-12-11T18:30:07.868Z,30.13
2022-12-11T18:32:36.556Z,28.25
2022-12-11T18:35:04.476Z,23.20
2022-12-11T18:37:32.274Z,25.58
2022-12-11T18:39:59.588Z,25.35
2022-12-11T18:42:34.161Z,24.55
2022-12-11T18:47:28.863Z,24.85
2022-12-11T18:50:00.120Z,25.75
2022-12-11T18:52:31.408Z,25.23
2022-12-11T18:54:58.799Z,22.45
2022-12-11T18:57:26.131Z,22.38
2022-12-11T18:59:54.235Z,25.23
2022-12-11T19:02:21.706Z,23.27
2022-12-11T19:04:49.264Z,22.83
2022-12-11T19:07:17.944Z,27.83
2022-12-11T19:09:48.340Z,23.25
2022-12-11T19:12:15.970Z,23.92
2022-12-11T19:14:43.338Z,28.00
2022-12-11T19:17:10.664Z,22.70
2022-12-11T19:19:38.169Z,24.23
2022-12-11T19:22:06.054Z,24.77
2022-12-11T19:24:34.732Z,31.23
2022-12-11T19:27:02.034Z,33.60
2022-12-11T19:29:32.205Z,28.88
2022-12-11T19:32:02.499Z,25.52
2022-12-11T19:34:29.908Z,27.45
2022-12-11T19:36:57.464Z,25.60
2022-12-11T19:39:25.002Z,25.20
2022-12-11T19:41:53.761Z,22.83
2022-12-11T19:44:21.039Z,26.92
2022-12-11T19:46:48.423Z,27.02
2022-12-11T19:49:15.774Z,33.55
2022-12-11T19:51:43.728Z,32.30
2022-12-11T19:54:13.924Z,30.27
2022-12-11T19:56:41.319Z,24.67
2022-12-11T19:59:10.699Z,23.35
2022-12-11T20:01:38.549Z,22.58
2022-12-11T20:04:07.579Z,22.75
2022-12-11T20:06:35.609Z,22.90
2022-12-11T20:09:05.612Z,22.88
2022-12-11T20:11:32.969Z,22.90
2022-12-11T20:14:00.710Z,25.30
2022-12-11T20:16:53.770Z,23.23
2022-12-11T20:19:17.060Z,23.77
2022-12-11T20:21:44.404Z,21.90
2022-12-11T20:24:12.148Z,24.80
2022-12-11T20:26:39.486Z,25.08
2022-12-11T20:29:08.221Z,23.48
2022-12-11T20:31:37.356Z,34.97
2022-12-11T20:34:05.252Z,39.90
2022-12-11T20:36:32.893Z,26.00
2022-12-11T20:39:00.319Z,32.63
2022-12-11T20:41:29.262Z,29.50
2022-12-11T20:43:56.778Z,22.42
2022-12-11T20:46:25.384Z,23.95
2022-12-11T20:48:54.962Z,22.65
2022-12-11T20:51:26.133Z,21.58
2022-12-11T20:53:58.165Z,22.90
2022-12-11T20:56:26.220Z,22.55
2022-12-11T20:58:53.603Z,23.00
2022-12-11T21:01:22.260Z,22.40
2022-12-11T21:03:49.917Z,22.60
2022-12-11T21:06:22.302Z,24.63
2022-12-11T21:08:49.696Z,23.35
2022-12-11T21:11:17.160Z,25.08
2022-12-11T21:13:44.622Z,24.75
2022-12-11T21:16:12.264Z,25.45
2022-12-11T21:18:39.691Z,28.83
2022-12-11T21:21:07.456Z,36.22
2022-12-11T21:23:36.142Z,28.50
2022-12-11T21:26:04.182Z,28.48
2022-12-11T21:28:35.440Z,23.25
2022-12-11T21:31:03.235Z,24.95
2022-12-11T21:33:31.867Z,25.45
2022-12-11T21:36:00.263Z,23.38
2022-12-11T21:38:27.707Z,24.38
2022-12-11T21:40:56.827Z,25.27
2022-12-11T21:43:24.176Z,29.73
2022-12-11T21:46:01.017Z,27.52
2022-12-11T21:48:29.354Z,25.52
2022-12-11T21:50:56.744Z,34.53
2022-12-11T21:53:24.049Z,29.52
2022-12-11T21:55:51.384Z,24.77
2022-12-11T21:58:20.154Z,25.88
2022-12-11T22:00:47.518Z,25.13
2022-12-11T22:03:14.930Z,23.90
2022-12-11T22:05:42.249Z,23.65
2022-12-11T22:08:09.639Z,22.92
2022-12-11T22:10:37.036Z,23.75
2022-12-11T22:13:04.374Z,23.02
2022-12-11T22:15:33.411Z,25.50
2022-12-11T22:18:00.739Z,23.30
2022-12-11T22:20:28.084Z,44.80
2022-12-11T22:22:55.447Z,30.15
2022-12-11T22:25:22.798Z,41.65
2022-12-11T22:27:50.900Z,23.58
2022-12-11T22:30:18.418Z,40.78
2022-12-11T22:32:47.184Z,27.77
2022-12-11T22:35:14.879Z,27.77
2022-12-11T22:37:42.456Z,23.05
2022-12-11T22:40:10.442Z,27.65
2022-12-11T22:42:37.983Z,19.83
2022-12-11T22:45:05.704Z,19.45
2022-12-11T22:47:33.207Z,19.35
2022-12-11T22:50:01.954Z,16.50
2022-12-11T22:52:29.731Z,18.77
2022-12-11T22:54:57.034Z,19.00
2022-12-11T22:57:24.370Z,18.48
2022-12-11T22:59:51.728Z,19.10
2022-12-11T23:02:19.060Z,18.80
2022-12-11T23:04:46.468Z,19.25
2022-12-11T23:07:15.226Z,18.70
2022-12-11T23:09:42.711Z,17.70
2022-12-11T23:12:10.057Z,18.77
2022-12-11T23:14:37.421Z,17.67
2022-12-11T23:17:04.781Z,17.73
2022-12-11T23:19:32.157Z,19.10
2022-12-11T23:21:59.540Z,18.95
2022-12-11T23:24:28.176Z,17.05
2022-12-11T23:26:55.503Z,19.17
2022-12-11T23:29:22.847Z,19.02
2022-12-11T23:31:50.214Z,17.85
2022-12-11T23:34:17.525Z,17.52
2022-12-11T23:36:44.879Z,18.90
2022-12-11T23:39:12.177Z,19.27
2022-12-11T23:41:40.933Z,18.98
2022-12-11T23:44:08.351Z,18.48
2022-12-11T23:46:35.793Z,18.33
2022-12-11T23:49:05.523Z,18.75
2022-12-11T23:51:32.937Z,17.15
2022-12-11T23:54:00.353Z,17.23
2022-12-11T23:56:29.390Z,17.00
2022-12-11T23:58:58.141Z,17.05
